sensor_id;sensor_type;location;lat;lon;timestamp;P1;durP1;ratioP1;P2;durP2;ratioP2
35376;SDS011;21480;51.642;4.834;2022-09-03T00:01:45;117.53;;;109.03;;
35376;SDS011;21480;51.642;4.834;2022-09-03T00:04:18;117.43;;;108.87;;
35376;SDS011;21480;51.642;4.834;2022-09-03T00:07:04;117.43;;;109.07;;
35376;SDS011;21480;51.642;4.834;2022-09-03T00:09:39;116.10;;;107.83;;
35376;SDS011;21480;51.642;4.834;2022-09-03T00:12:12;119.20;;;110.33;;
35376;SDS011;21480;51.642;4.834;2022-09-03T00:17:36;116.90;;;108.50;;
35376;SDS011;21480;51.642;4.834;2022-09-03T00:23:07;116.83;;;107.90;;
35376;SDS011;21480;51.642;4.834;2022-09-03T00:26:00;117.90;;;109.00;;
35376;SDS011;21480;51.642;4.834;2022-09-03T00:31:24;118.40;;;109.73;;
35376;SDS011;21480;51.642;4.834;2022-09-03T00:34:02;117.77;;;109.07;;
35376;SDS011;21480;51.642;4.834;2022-09-03T00:36:38;116.87;;;108.33;;
35376;SDS011;21480;51.642;4.834;2022-09-03T00:39:10;117.03;;;108.53;;
35376;SDS011;21480;51.642;4.834;2022-09-03T00:55:28;118.83;;;110.23;;
35376;SDS011;21480;51.642;4.834;2022-09-03T01:01:14;117.33;;;108.83;;
35376;SDS011;21480;51.642;4.834;2022-09-03T01:06:43;118.30;;;109.03;;
35376;SDS011;21480;51.642;4.834;2022-09-03T01:12:05;117.27;;;108.83;;
35376;SDS011;21480;51.642;4.834;2022-09-03T01:28:17;116.77;;;108.27;;
35376;SDS011;21480;51.642;4.834;2022-09-03T01:30:55;116.63;;;108.20;;
35376;SDS011;21480;51.642;4.834;2022-09-03T01:33:43;119.13;;;110.37;;
35376;SDS011;21480;51.642;4.834;2022-09-03T01:39:02;118.47;;;109.87;;
35376;SDS011;21480;51.642;4.834;2022-09-03T01:58:18;118.67;;;110.03;;
35376;SDS011;21480;51.642;4.834;2022-09-03T02:00:51;119.47;;;109.80;;
35376;SDS011;21480;51.642;4.834;2022-09-03T02:03:24;118.97;;;110.07;;
35376;SDS011;21480;51.642;4.834;2022-09-03T02:05:57;120.00;;;110.77;;
35376;SDS011;21480;51.642;4.834;2022-09-03T02:08:24;119.80;;;110.97;;
35376;SDS011;21480;51.642;4.834;2022-09-03T02:10:51;118.77;;;110.13;;
35376;SDS011;21480;51.642;4.834;2022-09-03T02:15:56;117.83;;;109.27;;
35376;SDS011;21480;51.642;4.834;2022-09-03T02:18:27;119.60;;;110.83;;
35376;SDS011;21480;51.642;4.834;2022-09-03T02:20:58;119.07;;;110.10;;
35376;SDS011;21480;51.642;4.834;2022-09-03T02:23:25;119.53;;;110.77;;
35376;SDS011;21480;51.642;4.834;2022-09-03T02:25:56;121.53;;;112.53;;
35376;SDS011;21480;51.642;4.834;2022-09-03T02:28:29;119.40;;;110.67;;
35376;SDS011;21480;51.642;4.834;2022-09-03T02:30:57;118.00;;;109.40;;
35376;SDS011;21480;51.642;4.834;2022-09-03T02:33:23;119.17;;;110.50;;
35376;SDS011;21480;51.642;4.834;2022-09-03T02:35:48;118.43;;;109.83;;
35376;SDS011;21480;51.642;4.834;2022-09-03T02:38:16;119.20;;;110.20;;
35376;SDS011;21480;51.642;4.834;2022-09-03T02:40:49;118.80;;;109.60;;
35376;SDS011;21480;51.642;4.834;2022-09-03T02:43:28;120.00;;;111.10;;
35376;SDS011;21480;51.642;4.834;2022-09-03T02:46:13;117.63;;;109.17;;
35376;SDS011;21480;51.642;4.834;2022-09-03T02:48:45;119.67;;;110.87;;
35376;SDS011;21480;51.642;4.834;2022-09-03T02:51:11;121.03;;;111.57;;
35376;SDS011;21480;51.642;4.834;2022-09-03T02:53:37;121.47;;;111.83;;
35376;SDS011;21480;51.642;4.834;2022-09-03T02:56:03;118.00;;;109.43;;
35376;SDS011;21480;51.642;4.834;2022-09-03T02:58:29;122.03;;;112.43;;
35376;SDS011;21480;51.642;4.834;2022-09-03T03:00:55;119.67;;;110.53;;
35376;SDS011;21480;51.642;4.834;2022-09-03T03:03:22;118.70;;;109.90;;
35376;SDS011;21480;51.642;4.834;2022-09-03T03:05:52;118.07;;;109.57;;
35376;SDS011;21480;51.642;4.834;2022-09-03T03:08:20;121.17;;;112.13;;
35376;SDS011;21480;51.642;4.834;2022-09-03T03:10:50;121.30;;;112.30;;
35376;SDS011;21480;51.642;4.834;2022-09-03T03:13:17;120.37;;;111.47;;
35376;SDS011;21480;51.642;4.834;2022-09-03T03:15:43;121.50;;;112.23;;
35376;SDS011;21480;51.642;4.834;2022-09-03T03:18:10;118.53;;;109.47;;
35376;SDS011;21480;51.642;4.834;2022-09-03T03:20:37;120.10;;;111.07;;
35376;SDS011;21480;51.642;4.834;2022-09-03T03:23:04;119.33;;;110.63;;
35376;SDS011;21480;51.642;4.834;2022-09-03T03:25:37;120.07;;;111.23;;
35376;SDS011;21480;51.642;4.834;2022-09-03T03:28:04;120.57;;;111.23;;
35376;SDS011;21480;51.642;4.834;2022-09-03T03:30:31;120.73;;;111.67;;
35376;SDS011;21480;51.642;4.834;2022-09-03T03:32:58;120.47;;;111.27;;
35376;SDS011;21480;51.642;4.834;2022-09-03T03:35:24;120.43;;;111.53;;
35376;SDS011;21480;51.642;4.834;2022-09-03T03:37:49;121.70;;;112.20;;
35376;SDS011;21480;51.642;4.834;2022-09-03T03:40:16;121.67;;;112.47;;
35376;SDS011;21480;51.642;4.834;2022-09-03T03:42:42;123.20;;;113.10;;
35376;SDS011;21480;51.642;4.834;2022-09-03T03:45:07;122.50;;;112.50;;
35376;SDS011;21480;51.642;4.834;2022-09-03T03:47:34;120.80;;;111.43;;
35376;SDS011;21480;51.642;4.834;2022-09-03T03:50:00;121.30;;;112.23;;
35376;SDS011;21480;51.642;4.834;2022-09-03T03:52:26;121.63;;;112.13;;
35376;SDS011;21480;51.642;4.834;2022-09-03T03:54:52;120.83;;;111.53;;
35376;SDS011;21480;51.642;4.834;2022-09-03T03:57:19;121.53;;;112.33;;
35376;SDS011;21480;51.642;4.834;2022-09-03T03:59:46;123.80;;;114.33;;
35376;SDS011;21480;51.642;4.834;2022-09-03T04:02:12;120.90;;;111.90;;
35376;SDS011;21480;51.642;4.834;2022-09-03T04:04:38;122.37;;;113.00;;
35376;SDS011;21480;51.642;4.834;2022-09-03T04:07:04;121.17;;;111.73;;
35376;SDS011;21480;51.642;4.834;2022-09-03T04:09:30;119.83;;;110.83;;
35376;SDS011;21480;51.642;4.834;2022-09-03T04:11:57;120.57;;;111.57;;
35376;SDS011;21480;51.642;4.834;2022-09-03T04:14:23;121.50;;;112.00;;
35376;SDS011;21480;51.642;4.834;2022-09-03T04:16:50;122.77;;;112.77;;
35376;SDS011;21480;51.642;4.834;2022-09-03T04:19:16;121.77;;;112.27;;
35376;SDS011;21480;51.642;4.834;2022-09-03T04:21:42;122.20;;;112.97;;
35376;SDS011;21480;51.642;4.834;2022-09-03T04:24:08;120.73;;;111.33;;
35376;SDS011;21480;51.642;4.834;2022-09-03T04:26:34;120.73;;;111.57;;
35376;SDS011;21480;51.642;4.834;2022-09-03T04:29:02;120.03;;;110.63;;
35376;SDS011;21480;51.642;4.834;2022-09-03T04:31:29;120.93;;;111.80;;
35376;SDS011;21480;51.642;4.834;2022-09-03T04:33:56;120.27;;;110.73;;
35376;SDS011;21480;51.642;4.834;2022-09-03T04:36:22;121.43;;;111.77;;
35376;SDS011;21480;51.642;4.834;2022-09-03T04:38:50;119.60;;;110.70;;
35376;SDS011;21480;51.642;4.834;2022-09-03T04:41:20;122.13;;;112.00;;
35376;SDS011;21480;51.642;4.834;2022-09-03T04:43:49;121.00;;;111.60;;
35376;SDS011;21480;51.642;4.834;2022-09-03T04:46:16;121.03;;;111.83;;
35376;SDS011;21480;51.642;4.834;2022-09-03T04:48:42;121.00;;;112.00;;
35376;SDS011;21480;51.642;4.834;2022-09-03T04:51:12;119.97;;;110.60;;
35376;SDS011;21480;51.642;4.834;2022-09-03T04:53:40;119.90;;;111.03;;
35376;SDS011;21480;51.642;4.834;2022-09-03T04:56:20;120.47;;;111.27;;
35376;SDS011;21480;51.642;4.834;2022-09-03T04:58:48;121.00;;;111.50;;
35376;SDS011;21480;51.642;4.834;2022-09-03T05:01:19;121.60;;;112.47;;
35376;SDS011;21480;51.642;4.834;2022-09-03T05:03:46;122.07;;;112.73;;
35376;SDS011;21480;51.642;4.834;2022-09-03T05:06:13;117.43;;;108.60;;
35376;SDS011;21480;51.642;4.834;2022-09-03T05:08:41;121.97;;;112.47;;
35376;SDS011;21480;51.642;4.834;2022-09-03T05:11:08;120.73;;;111.53;;
35376;SDS011;21480;51.642;4.834;2022-09-03T05:13:34;123.63;;;113.07;;
35376;SDS011;21480;51.642;4.834;2022-09-03T05:16:04;121.43;;;111.90;;
35376;SDS011;21480;51.642;4.834;2022-09-03T05:18:32;121.67;;;112.10;;
35376;SDS011;21480;51.642;4.834;2022-09-03T05:21:02;120.43;;;111.07;;
35376;SDS011;21480;51.642;4.834;2022-09-03T05:23:30;120.23;;;111.07;;
35376;SDS011;21480;51.642;4.834;2022-09-03T05:25:57;123.57;;;113.70;;
35376;SDS011;21480;51.642;4.834;2022-09-03T05:28:27;119.57;;;110.33;;
35376;SDS011;21480;51.642;4.834;2022-09-03T05:31:13;120.70;;;111.80;;
35376;SDS011;21480;51.642;4.834;2022-09-03T05:33:45;117.97;;;109.23;;
35376;SDS011;21480;51.642;4.834;2022-09-03T05:36:16;122.60;;;112.53;;
35376;SDS011;21480;51.642;4.834;2022-09-03T05:38:43;120.60;;;111.43;;
35376;SDS011;21480;51.642;4.834;2022-09-03T05:41:10;117.40;;;108.70;;
35376;SDS011;21480;51.642;4.834;2022-09-03T05:43:39;119.33;;;109.97;;
35376;SDS011;21480;51.642;4.834;2022-09-03T05:46:10;120.57;;;111.10;;
35376;SDS011;21480;51.642;4.834;2022-09-03T05:48:42;117.80;;;108.67;;
35376;SDS011;21480;51.642;4.834;2022-09-03T05:51:12;118.27;;;109.37;;
35376;SDS011;21480;51.642;4.834;2022-09-03T05:53:42;119.27;;;110.23;;
35376;SDS011;21480;51.642;4.834;2022-09-03T05:56:12;120.67;;;111.37;;
35376;SDS011;21480;51.642;4.834;2022-09-03T05:58:43;119.97;;;110.83;;
35376;SDS011;21480;51.642;4.834;2022-09-03T06:01:11;119.77;;;109.77;;
35376;SDS011;21480;51.642;4.834;2022-09-03T06:04:00;119.37;;;110.63;;
35376;SDS011;21480;51.642;4.834;2022-09-03T06:06:28;119.90;;;111.17;;
35376;SDS011;21480;51.642;4.834;2022-09-03T06:08:56;120.70;;;111.47;;
35376;SDS011;21480;51.642;4.834;2022-09-03T06:11:24;118.87;;;110.00;;
35376;SDS011;21480;51.642;4.834;2022-09-03T06:13:52;119.97;;;111.17;;
35376;SDS011;21480;51.642;4.834;2022-09-03T06:16:18;120.53;;;111.33;;
35376;SDS011;21480;51.642;4.834;2022-09-03T06:18:46;119.87;;;110.97;;
35376;SDS011;21480;51.642;4.834;2022-09-03T06:21:12;120.07;;;110.97;;
35376;SDS011;21480;51.642;4.834;2022-09-03T06:23:39;118.50;;;109.70;;
35376;SDS011;21480;51.642;4.834;2022-09-03T06:26:09;120.57;;;111.33;;
35376;SDS011;21480;51.642;4.834;2022-09-03T06:28:37;118.40;;;109.33;;
35376;SDS011;21480;51.642;4.834;2022-09-03T06:31:05;119.80;;;110.83;;
35376;SDS011;21480;51.642;4.834;2022-09-03T06:33:33;120.10;;;111.03;;
35376;SDS011;21480;51.642;4.834;2022-09-03T06:36:01;118.50;;;109.90;;
35376;SDS011;21480;51.642;4.834;2022-09-03T06:38:29;118.07;;;109.33;;
35376;SDS011;21480;51.642;4.834;2022-09-03T06:40:57;119.73;;;110.97;;
35376;SDS011;21480;51.642;4.834;2022-09-03T06:43:28;118.33;;;109.43;;
35376;SDS011;21480;51.642;4.834;2022-09-03T06:45:56;119.17;;;110.33;;
35376;SDS011;21480;51.642;4.834;2022-09-03T06:48:23;119.13;;;109.97;;
35376;SDS011;21480;51.642;4.834;2022-09-03T06:50:57;117.60;;;109.17;;
35376;SDS011;21480;51.642;4.834;2022-09-03T06:53:25;118.10;;;109.37;;
35376;SDS011;21480;51.642;4.834;2022-09-03T06:55:57;119.43;;;110.57;;
35376;SDS011;21480;51.642;4.834;2022-09-03T06:58:24;120.27;;;111.30;;
35376;SDS011;21480;51.642;4.834;2022-09-03T07:00:53;119.77;;;111.07;;
35376;SDS011;21480;51.642;4.834;2022-09-03T07:03:24;119.27;;;110.17;;
35376;SDS011;21480;51.642;4.834;2022-09-03T07:05:50;119.13;;;110.47;;
35376;SDS011;21480;51.642;4.834;2022-09-03T07:08:15;119.47;;;110.07;;
35376;SDS011;21480;51.642;4.834;2022-09-03T07:10:44;117.43;;;108.77;;
35376;SDS011;21480;51.642;4.834;2022-09-03T07:13:11;120.30;;;111.17;;
35376;SDS011;21480;51.642;4.834;2022-09-03T07:15:37;120.57;;;111.53;;
35376;SDS011;21480;51.642;4.834;2022-09-03T07:18:05;121.00;;;112.00;;
35376;SDS011;21480;51.642;4.834;2022-09-03T07:20:30;118.73;;;109.70;;
35376;SDS011;21480;51.642;4.834;2022-09-03T07:22:56;120.90;;;111.23;;
35376;SDS011;21480;51.642;4.834;2022-09-03T07:25:23;119.83;;;110.47;;
35376;SDS011;21480;51.642;4.834;2022-09-03T07:27:53;117.90;;;109.17;;
35376;SDS011;21480;51.642;4.834;2022-09-03T07:30:19;121.93;;;112.73;;
35376;SDS011;21480;51.642;4.834;2022-09-03T07:32:45;119.50;;;110.90;;
35376;SDS011;21480;51.642;4.834;2022-09-03T07:35:14;120.17;;;111.10;;
35376;SDS011;21480;51.642;4.834;2022-09-03T07:37:40;120.23;;;111.27;;
35376;SDS011;21480;51.642;4.834;2022-09-03T07:40:07;122.23;;;113.43;;
35376;SDS011;21480;51.642;4.834;2022-09-03T07:42:34;120.03;;;111.27;;
35376;SDS011;21480;51.642;4.834;2022-09-03T07:45:07;121.60;;;112.23;;
35376;SDS011;21480;51.642;4.834;2022-09-03T07:47:36;119.37;;;110.63;;
35376;SDS011;21480;51.642;4.834;2022-09-03T07:50:02;123.10;;;114.03;;
35376;SDS011;21480;51.642;4.834;2022-09-03T07:52:29;118.47;;;109.63;;
35376;SDS011;21480;51.642;4.834;2022-09-03T07:54:55;119.23;;;110.50;;
35376;SDS011;21480;51.642;4.834;2022-09-03T07:57:23;118.13;;;109.67;;
35376;SDS011;21480;51.642;4.834;2022-09-03T07:59:49;120.10;;;111.07;;
35376;SDS011;21480;51.642;4.834;2022-09-03T08:02:14;121.23;;;112.50;;
35376;SDS011;21480;51.642;4.834;2022-09-03T08:04:40;119.90;;;110.97;;
35376;SDS011;21480;51.642;4.834;2022-09-03T08:07:07;121.07;;;112.20;;
35376;SDS011;21480;51.642;4.834;2022-09-03T08:09:33;118.93;;;110.63;;
35376;SDS011;21480;51.642;4.834;2022-09-03T08:11:58;121.87;;;112.37;;
35376;SDS011;21480;51.642;4.834;2022-09-03T08:14:24;120.33;;;111.73;;
35376;SDS011;21480;51.642;4.834;2022-09-03T08:16:50;120.23;;;111.53;;
35376;SDS011;21480;51.642;4.834;2022-09-03T08:19:16;118.97;;;109.93;;
35376;SDS011;21480;51.642;4.834;2022-09-03T08:21:43;120.07;;;111.57;;
35376;SDS011;21480;51.642;4.834;2022-09-03T08:24:09;121.07;;;112.07;;
35376;SDS011;21480;51.642;4.834;2022-09-03T08:26:37;119.73;;;110.87;;
35376;SDS011;21480;51.642;4.834;2022-09-03T08:29:05;118.77;;;110.27;;
35376;SDS011;21480;51.642;4.834;2022-09-03T08:31:31;118.83;;;110.37;;
35376;SDS011;21480;51.642;4.834;2022-09-03T08:33:58;118.33;;;109.87;;
35376;SDS011;21480;51.642;4.834;2022-09-03T08:36:30;118.70;;;110.27;;
35376;SDS011;21480;51.642;4.834;2022-09-03T08:38:58;117.70;;;109.33;;
35376;SDS011;21480;51.642;4.834;2022-09-03T08:46:49;117.20;;;108.93;;
35376;SDS011;21480;51.642;4.834;2022-09-03T08:49:42;117.57;;;109.40;;
35376;SDS011;21480;51.642;4.834;2022-09-03T08:58:13;119.53;;;110.87;;
35376;SDS011;21480;51.642;4.834;2022-09-03T09:14:19;119.70;;;111.00;;
35376;SDS011;21480;51.642;4.834;2022-09-03T09:22:30;118.03;;;109.63;;
35376;SDS011;21480;51.642;4.834;2022-09-03T09:25:14;117.13;;;108.10;;
35376;SDS011;21480;51.642;4.834;2022-09-03T09:27:59;117.20;;;108.70;;
35376;SDS011;21480;51.642;4.834;2022-09-03T09:30:28;117.63;;;109.40;;
35376;SDS011;21480;51.642;4.834;2022-09-03T09:32:54;116.47;;;108.40;;
35376;SDS011;21480;51.642;4.834;2022-09-03T09:35:20;118.77;;;110.23;;
35376;SDS011;21480;51.642;4.834;2022-09-03T09:37:51;117.27;;;108.33;;
35376;SDS011;21480;51.642;4.834;2022-09-03T09:40:42;116.53;;;108.57;;
35376;SDS011;21480;51.642;4.834;2022-09-03T09:45:37;114.67;;;106.83;;
35376;SDS011;21480;51.642;4.834;2022-09-03T09:48:07;117.47;;;108.90;;
35376;SDS011;21480;51.642;4.834;2022-09-03T09:51:11;115.43;;;107.57;;
35376;SDS011;21480;51.642;4.834;2022-09-03T09:53:41;115.77;;;108.07;;
35376;SDS011;21480;51.642;4.834;2022-09-03T09:56:08;114.20;;;106.80;;
35376;SDS011;21480;51.642;4.834;2022-09-03T09:58:46;114.30;;;106.60;;
35376;SDS011;21480;51.642;4.834;2022-09-03T10:01:22;115.40;;;107.77;;
35376;SDS011;21480;51.642;4.834;2022-09-03T10:04:00;115.17;;;106.67;;
35376;SDS011;21480;51.642;4.834;2022-09-03T10:06:34;114.13;;;106.43;;
35376;SDS011;21480;51.642;4.834;2022-09-03T10:09:19;115.70;;;107.97;;
35376;SDS011;21480;51.642;4.834;2022-09-03T10:12:30;114.67;;;106.67;;
35376;SDS011;21480;51.642;4.834;2022-09-03T10:14:41;114.43;;;106.88;;
35376;SDS011;21480;51.642;4.834;2022-09-03T10:17:28;114.93;;;107.15;;
35376;SDS011;21480;51.642;4.834;2022-09-03T10:20:30;114.25;;;106.78;;
35376;SDS011;21480;51.642;4.834;2022-09-03T10:28:35;114.45;;;106.85;;
35376;SDS011;21480;51.642;4.834;2022-09-03T10:48:37;113.83;;;106.30;;
35376;SDS011;21480;51.642;4.834;2022-09-03T11:05:20;112.30;;;104.70;;
35376;SDS011;21480;51.642;4.834;2022-09-03T11:07:57;110.95;;;103.65;;
35376;SDS011;21480;51.642;4.834;2022-09-03T11:10:34;112.43;;;104.70;;
35376;SDS011;21480;51.642;4.834;2022-09-03T11:15:51;111.57;;;104.18;;
35376;SDS011;21480;51.642;4.834;2022-09-03T11:18:48;113.25;;;105.65;;
35376;SDS011;21480;51.642;4.834;2022-09-03T11:21:19;114.05;;;106.20;;
35376;SDS011;21480;51.642;4.834;2022-09-03T11:23:50;112.20;;;104.28;;
35376;SDS011;21480;51.642;4.834;2022-09-03T11:26:24;111.75;;;104.28;;
35376;SDS011;21480;51.642;4.834;2022-09-03T11:42:41;113.35;;;105.85;;
35376;SDS011;21480;51.642;4.834;2022-09-03T11:45:20;112.28;;;104.88;;
35376;SDS011;21480;51.642;4.834;2022-09-03T11:47:45;111.93;;;104.72;;
35376;SDS011;21480;51.642;4.834;2022-09-03T11:52:48;111.90;;;104.65;;
35376;SDS011;21480;51.642;4.834;2022-09-03T11:55:30;114.07;;;105.93;;
35376;SDS011;21480;51.642;4.834;2022-09-03T11:57:58;112.32;;;105.28;;
35376;SDS011;21480;51.642;4.834;2022-09-03T12:00:36;112.45;;;104.57;;
35376;SDS011;21480;51.642;4.834;2022-09-03T12:03:11;111.45;;;104.30;;
35376;SDS011;21480;51.642;4.834;2022-09-03T12:19:59;109.05;;;102.22;;
35376;SDS011;21480;51.642;4.834;2022-09-03T12:22:25;109.45;;;102.78;;
35376;SDS011;21480;51.642;4.834;2022-09-03T12:24:53;108.75;;;101.95;;
35376;SDS011;21480;51.642;4.834;2022-09-03T12:27:20;109.30;;;102.20;;
35376;SDS011;21480;51.642;4.834;2022-09-03T12:29:51;106.65;;;99.95;;
35376;SDS011;21480;51.642;4.834;2022-09-03T12:32:20;104.45;;;98.18;;
35376;SDS011;21480;51.642;4.834;2022-09-03T12:34:46;103.78;;;97.55;;
35376;SDS011;21480;51.642;4.834;2022-09-03T12:37:19;106.82;;;100.38;;
35376;SDS011;21480;51.642;4.834;2022-09-03T12:39:54;106.38;;;99.97;;
35376;SDS011;21480;51.642;4.834;2022-09-03T12:42:25;103.43;;;96.95;;
35376;SDS011;21480;51.642;4.834;2022-09-03T12:44:53;104.70;;;98.60;;
35376;SDS011;21480;51.642;4.834;2022-09-03T12:47:22;104.78;;;97.93;;
35376;SDS011;21480;51.642;4.834;2022-09-03T12:49:52;104.22;;;98.22;;
35376;SDS011;21480;51.642;4.834;2022-09-03T12:57:32;104.82;;;98.68;;
35376;SDS011;21480;51.642;4.834;2022-09-03T13:00:03;103.43;;;97.03;;
35376;SDS011;21480;51.642;4.834;2022-09-03T13:02:38;105.63;;;99.30;;
35376;SDS011;21480;51.642;4.834;2022-09-03T13:08:00;106.45;;;99.43;;
35376;SDS011;21480;51.642;4.834;2022-09-03T13:10:32;106.93;;;100.03;;
35376;SDS011;21480;51.642;4.834;2022-09-03T13:13:05;103.38;;;97.32;;
35376;SDS011;21480;51.642;4.834;2022-09-03T13:18:56;105.60;;;99.13;;
35376;SDS011;21480;51.642;4.834;2022-09-03T13:25:04;103.78;;;97.88;;
35376;SDS011;21480;51.642;4.834;2022-09-03T13:30:16;106.78;;;100.30;;
35376;SDS011;21480;51.642;4.834;2022-09-03T13:35:54;106.57;;;100.38;;
35376;SDS011;21480;51.642;4.834;2022-09-03T13:38:41;106.82;;;100.03;;
35376;SDS011;21480;51.642;4.834;2022-09-03T13:41:20;105.10;;;99.03;;
35376;SDS011;21480;51.642;4.834;2022-09-03T13:44:03;104.47;;;98.55;;
35376;SDS011;21480;51.642;4.834;2022-09-03T13:46:51;104.65;;;98.68;;
35376;SDS011;21480;51.642;4.834;2022-09-03T13:49:34;106.72;;;99.93;;
35376;SDS011;21480;51.642;4.834;2022-09-03T13:52:42;108.07;;;101.53;;
35376;SDS011;21480;51.642;4.834;2022-09-03T13:55:24;108.05;;;101.32;;
35376;SDS011;21480;51.642;4.834;2022-09-03T13:58:18;106.20;;;99.75;;
35376;SDS011;21480;51.642;4.834;2022-09-03T14:01:05;105.60;;;99.32;;
35376;SDS011;21480;51.642;4.834;2022-09-03T14:03:52;106.57;;;100.35;;
35376;SDS011;21480;51.642;4.834;2022-09-03T14:06:36;105.55;;;99.13;;
35376;SDS011;21480;51.642;4.834;2022-09-03T14:10:08;102.20;;;96.50;;
35376;SDS011;21480;51.642;4.834;2022-09-03T14:12:24;105.15;;;98.93;;
35376;SDS011;21480;51.642;4.834;2022-09-03T14:15:21;103.20;;;97.25;;
35376;SDS011;21480;51.642;4.834;2022-09-03T14:18:11;103.40;;;97.43;;
35376;SDS011;21480;51.642;4.834;2022-09-03T14:20:58;104.28;;;98.03;;
35376;SDS011;21480;51.642;4.834;2022-09-03T14:26:26;106.35;;;99.82;;
35376;SDS011;21480;51.642;4.834;2022-09-03T14:29:01;105.05;;;98.78;;
35376;SDS011;21480;51.642;4.834;2022-09-03T14:31:53;103.63;;;97.68;;
35376;SDS011;21480;51.642;4.834;2022-09-03T14:40:11;107.18;;;100.68;;
35376;SDS011;21480;51.642;4.834;2022-09-03T14:42:43;109.00;;;102.40;;
35376;SDS011;21480;51.642;4.834;2022-09-03T14:48:33;107.82;;;101.38;;
35376;SDS011;21480;51.642;4.834;2022-09-03T14:51:30;108.60;;;102.00;;
35376;SDS011;21480;51.642;4.834;2022-09-03T15:11:47;111.32;;;104.47;;
35376;SDS011;21480;51.642;4.834;2022-09-03T15:14:28;109.07;;;102.40;;
35376;SDS011;21480;51.642;4.834;2022-09-03T15:19:56;105.13;;;98.85;;
35376;SDS011;21480;51.642;4.834;2022-09-03T15:30:53;104.68;;;98.60;;
35376;SDS011;21480;51.642;4.834;2022-09-03T15:36:21;104.72;;;98.63;;
35376;SDS011;21480;51.642;4.834;2022-09-03T15:38:58;107.47;;;101.18;;
35376;SDS011;21480;51.642;4.834;2022-09-03T15:41:36;108.07;;;101.22;;
35376;SDS011;21480;51.642;4.834;2022-09-03T15:44:14;107.97;;;101.63;;
35376;SDS011;21480;51.642;4.834;2022-09-03T15:49:17;109.72;;;103.03;;
35376;SDS011;21480;51.642;4.834;2022-09-03T16:03:12;110.97;;;103.57;;
35376;SDS011;21480;51.642;4.834;2022-09-03T16:05:46;111.93;;;104.95;;
35376;SDS011;21480;51.642;4.834;2022-09-03T16:08:42;111.47;;;104.47;;
35376;SDS011;21480;51.642;4.834;2022-09-03T16:11:58;111.00;;;104.10;;
35376;SDS011;21480;51.642;4.834;2022-09-03T16:14:11;112.82;;;105.43;;
35376;SDS011;21480;51.642;4.834;2022-09-03T16:20:06;113.65;;;106.40;;
35376;SDS011;21480;51.642;4.834;2022-09-03T16:22:50;113.80;;;105.93;;
35376;SDS011;21480;51.642;4.834;2022-09-03T16:25:33;112.07;;;104.03;;
35376;SDS011;21480;51.642;4.834;2022-09-03T16:28:27;113.03;;;105.53;;
35376;SDS011;21480;51.642;4.834;2022-09-03T16:31:07;113.53;;;105.28;;
35376;SDS011;21480;51.642;4.834;2022-09-03T16:33:50;113.75;;;106.03;;
35376;SDS011;21480;51.642;4.834;2022-09-03T16:42:13;113.45;;;105.95;;
35376;SDS011;21480;51.642;4.834;2022-09-03T16:44:53;111.13;;;103.90;;
35376;SDS011;21480;51.642;4.834;2022-09-03T16:51:06;113.80;;;106.28;;
35376;SDS011;21480;51.642;4.834;2022-09-03T16:56:37;113.05;;;105.65;;
35376;SDS011;21480;51.642;4.834;2022-09-03T17:01:45;112.25;;;105.03;;
35376;SDS011;21480;51.642;4.834;2022-09-03T17:18:25;114.38;;;106.47;;
35376;SDS011;21480;51.642;4.834;2022-09-03T17:21:06;114.47;;;106.93;;
35376;SDS011;21480;51.642;4.834;2022-09-03T17:26:33;113.57;;;106.05;;
35376;SDS011;21480;51.642;4.834;2022-09-03T17:35:10;115.35;;;107.47;;
35376;SDS011;21480;51.642;4.834;2022-09-03T17:48:57;115.78;;;106.40;;
35376;SDS011;21480;51.642;4.834;2022-09-03T17:57:16;116.67;;;107.97;;
35376;SDS011;21480;51.642;4.834;2022-09-03T18:00:03;120.27;;;110.07;;
35376;SDS011;21480;51.642;4.834;2022-09-03T18:02:51;117.50;;;108.60;;
35376;SDS011;21480;51.642;4.834;2022-09-03T18:14:34;117.33;;;108.03;;
35376;SDS011;21480;51.642;4.834;2022-09-03T18:16:34;113.70;;;105.90;;
35376;SDS011;21480;51.642;4.834;2022-09-03T18:21:53;116.63;;;108.40;;
35376;SDS011;21480;51.642;4.834;2022-09-03T18:24:53;117.03;;;107.70;;
35376;SDS011;21480;51.642;4.834;2022-09-03T18:27:48;140.63;;;111.13;;
35376;SDS011;21480;51.642;4.834;2022-09-03T18:31:22;117.70;;;107.83;;
35376;SDS011;21480;51.642;4.834;2022-09-03T18:34:09;115.83;;;107.60;;
35376;SDS011;21480;51.642;4.834;2022-09-03T18:36:56;115.63;;;107.33;;
35376;SDS011;21480;51.642;4.834;2022-09-03T18:39:43;116.30;;;107.83;;
35376;SDS011;21480;51.642;4.834;2022-09-03T18:42:31;116.10;;;108.40;;
35376;SDS011;21480;51.642;4.834;2022-09-03T18:48:46;115.07;;;107.13;;
35376;SDS011;21480;51.642;4.834;2022-09-03T18:51:41;117.67;;;109.40;;
35376;SDS011;21480;51.642;4.834;2022-09-03T18:58:02;117.30;;;109.10;;
35376;SDS011;21480;51.642;4.834;2022-09-03T19:06:55;115.97;;;107.73;;
35376;SDS011;21480;51.642;4.834;2022-09-03T19:12:46;116.73;;;108.27;;
35376;SDS011;21480;51.642;4.834;2022-09-03T19:15:36;115.50;;;107.10;;
35376;SDS011;21480;51.642;4.834;2022-09-03T19:22:00;115.63;;;107.73;;
35376;SDS011;21480;51.642;4.834;2022-09-03T19:24:45;117.00;;;108.97;;
35376;SDS011;21480;51.642;4.834;2022-09-03T19:27:31;115.77;;;107.80;;
35376;SDS011;21480;51.642;4.834;2022-09-03T19:48:39;116.43;;;108.30;;
35376;SDS011;21480;51.642;4.834;2022-09-03T19:51:31;118.37;;;109.77;;
35376;SDS011;21480;51.642;4.834;2022-09-03T19:54:22;117.90;;;109.87;;
35376;SDS011;21480;51.642;4.834;2022-09-03T19:57:10;117.57;;;109.40;;
35376;SDS011;21480;51.642;4.834;2022-09-03T19:59:58;116.33;;;108.43;;
35376;SDS011;21480;51.642;4.834;2022-09-03T20:02:45;115.50;;;107.27;;
35376;SDS011;21480;51.642;4.834;2022-09-03T20:05:31;118.30;;;110.17;;
35376;SDS011;21480;51.642;4.834;2022-09-03T20:08:16;116.07;;;108.17;;
35376;SDS011;21480;51.642;4.834;2022-09-03T20:11:02;117.87;;;109.87;;
35376;SDS011;21480;51.642;4.834;2022-09-03T20:13:38;116.10;;;108.30;;
35376;SDS011;21480;51.642;4.834;2022-09-03T20:16:30;115.90;;;107.87;;
35376;SDS011;21480;51.642;4.834;2022-09-03T20:22:05;116.33;;;107.93;;
35376;SDS011;21480;51.642;4.834;2022-09-03T20:31:04;115.83;;;107.73;;
35376;SDS011;21480;51.642;4.834;2022-09-03T20:36:23;116.67;;;108.97;;
35376;SDS011;21480;51.642;4.834;2022-09-03T20:39:30;117.63;;;109.73;;
35376;SDS011;21480;51.642;4.834;2022-09-03T20:44:51;116.37;;;108.67;;
35376;SDS011;21480;51.642;4.834;2022-09-03T20:50:43;117.70;;;109.30;;
35376;SDS011;21480;51.642;4.834;2022-09-03T20:55:49;116.20;;;108.37;;